sensor_id;sensor_type;location;lat;lon;timestamp;pressure;altitude;pressure_sealevel;temperature;humidity
61136;BME280;47021;51.340;12.432;2023-12-04T02:34:12;100529.09;;;2.32;59.21
61136;BME280;47021;51.340;12.432;2023-12-04T02:36:37;100529.03;;;2.54;58.69
61136;BME280;47021;51.340;12.432;2023-12-04T02:39:09;100526.25;;;2.58;58.07
61136;BME280;47021;51.340;12.432;2023-12-04T02:41:35;100530.69;;;2.55;58.20
61136;BME280;47021;51.340;12.432;2023-12-04T02:44:02;100524.66;;;2.36;58.51
61136;BME280;47021;51.340;12.432;2023-12-04T02:46:27;100520.97;;;2.41;57.99
61136;BME280;47021;51.340;12.432;2023-12-04T02:48:52;100514.41;;;2.54;58.26
61136;BME280;47021;51.340;12.432;2023-12-04T02:51:30;100524.09;;;2.68;58.04
61136;BME280;47021;51.340;12.432;2023-12-04T02:53:55;100520.44;;;2.53;58.07
61136;BME280;47021;51.340;12.432;2023-12-04T02:56:28;100519.31;;;2.40;57.96
61136;BME280;47021;51.340;12.432;2023-12-04T02:59:06;100514.03;;;2.23;58.49
61136;BME280;47021;51.340;12.432;2023-12-04T03:01:32;100516.94;;;2.15;58.67
61136;BME280;47021;51.340;12.432;2023-12-04T03:04:04;100512.47;;;2.39;57.68
61136;BME280;47021;51.340;12.432;2023-12-04T03:06:47;100514.19;;;2.77;57.56
61136;BME280;47021;51.340;12.432;2023-12-04T03:09:13;100512.81;;;2.70;57.49
61136;BME280;47021;51.340;12.432;2023-12-04T03:11:42;100507.31;;;2.39;58.26
61136;BME280;47021;51.340;12.432;2023-12-04T03:14:07;100505.03;;;2.33;58.21
61136;BME280;47021;51.340;12.432;2023-12-04T03:16:35;100506.59;;;2.56;58.05
61136;BME280;47021;51.340;12.432;2023-12-04T03:19:02;100502.28;;;2.56;57.60
61136;BME280;47021;51.340;12.432;2023-12-04T03:21:28;100496.13;;;2.40;58.12
61136;BME280;47021;51.340;12.432;2023-12-04T03:23:54;100496.19;;;2.39;58.12
61136;BME280;47021;51.340;12.432;2023-12-04T03:26:21;100490.22;;;2.38;58.08
61136;BME280;47021;51.340;12.432;2023-12-04T03:28:52;100494.75;;;2.32;58.16
61136;BME280;47021;51.340;12.432;2023-12-04T03:31:24;100496.19;;;2.39;57.98
61136;BME280;47021;51.340;12.432;2023-12-04T03:33:50;100491.13;;;2.17;57.90
61136;BME280;47021;51.340;12.432;2023-12-04T03:36:15;100486.34;;;2.28;58.59
61136;BME280;47021;51.340;12.432;2023-12-04T03:41:13;100489.31;;;2.58;58.14
61136;BME280;47021;51.340;12.432;2023-12-04T03:43:51;100490.38;;;2.72;57.68
61136;BME280;47021;51.340;12.432;2023-12-04T03:46:22;100481.69;;;2.36;58.52
61136;BME280;47021;51.340;12.432;2023-12-04T03:48:47;100485.41;;;2.49;58.17
61136;BME280;47021;51.340;12.432;2023-12-04T03:53:55;100475.94;;;2.87;57.07
61136;BME280;47021;51.340;12.432;2023-12-04T03:56:22;100472.47;;;2.88;57.35
61136;BME280;47021;51.340;12.432;2023-12-04T03:58:48;100467.88;;;2.76;57.82
61136;BME280;47021;51.340;12.432;2023-12-04T04:01:14;100468.22;;;2.68;57.77
61136;BME280;47021;51.340;12.432;2023-12-04T04:03:40;100462.78;;;2.93;57.35
61136;BME280;47021;51.340;12.432;2023-12-04T04:06:11;100464.22;;;2.99;57.28
61136;BME280;47021;51.340;12.432;2023-12-04T04:08:36;100467.88;;;2.95;57.67
61136;BME280;47021;51.340;12.432;2023-12-04T04:11:02;100465.16;;;2.98;57.37
61136;BME280;47021;51.340;12.432;2023-12-04T04:16:15;100449.03;;;3.11;57.03
61136;BME280;47021;51.340;12.432;2023-12-04T04:18:47;100458.50;;;3.11;56.93
61136;BME280;47021;51.340;12.432;2023-12-04T04:21:12;100454.47;;;3.05;57.21
61136;BME280;47021;51.340;12.432;2023-12-04T04:23:39;100451.13;;;3.03;57.20
61136;BME280;47021;51.340;12.432;2023-12-04T04:26:04;100453.44;;;2.91;57.80
61136;BME280;47021;51.340;12.432;2023-12-04T04:28:29;100458.41;;;2.95;57.91
61136;BME280;47021;51.340;12.432;2023-12-04T04:30:55;100450.88;;;2.91;57.52
61136;BME280;47021;51.340;12.432;2023-12-04T04:33:20;100450.44;;;3.00;57.62
61136;BME280;47021;51.340;12.432;2023-12-04T04:38:26;100441.88;;;2.43;57.24
61136;BME280;47021;51.340;12.432;2023-12-04T04:40:52;100435.75;;;2.83;57.63
61136;BME280;47021;51.340;12.432;2023-12-04T04:43:17;100443.16;;;2.72;56.78
61136;BME280;47021;51.340;12.432;2023-12-04T04:45:42;100436.50;;;2.66;57.15
61136;BME280;47021;51.340;12.432;2023-12-04T04:48:07;100437.69;;;2.78;56.69
61136;BME280;47021;51.340;12.432;2023-12-04T04:50:33;100440.69;;;2.88;56.46
61136;BME280;47021;51.340;12.432;2023-12-04T04:53:05;100439.44;;;2.77;56.38
61136;BME280;47021;51.340;12.432;2023-12-04T04:55:32;100427.25;;;2.81;56.39
61136;BME280;47021;51.340;12.432;2023-12-04T04:57:57;100419.59;;;2.42;57.14
61136;BME280;47021;51.340;12.432;2023-12-04T05:00:23;100408.50;;;2.77;56.85
61136;BME280;47021;51.340;12.432;2023-12-04T05:02:56;100402.25;;;2.64;56.93
61136;BME280;47021;51.340;12.432;2023-12-04T05:05:21;100399.03;;;2.59;56.64
61136;BME280;47021;51.340;12.432;2023-12-04T05:07:47;100402.53;;;2.58;56.45
61136;BME280;47021;51.340;12.432;2023-12-04T05:10:13;100389.72;;;2.38;57.81
61136;BME280;47021;51.340;12.432;2023-12-04T05:12:38;100393.06;;;2.40;57.86
61136;BME280;47021;51.340;12.432;2023-12-04T05:15:09;100395.03;;;2.54;57.82
61136;BME280;47021;51.340;12.432;2023-12-04T05:17:35;100387.06;;;2.58;57.96
61136;BME280;47021;51.340;12.432;2023-12-04T05:20:11;100390.88;;;2.68;57.82
61136;BME280;47021;51.340;12.432;2023-12-04T05:22:36;100384.41;;;2.60;57.21
61136;BME280;47021;51.340;12.432;2023-12-04T05:25:01;100385.91;;;2.47;56.97
61136;BME280;47021;51.340;12.432;2023-12-04T05:30:10;100380.31;;;2.74;56.54
61136;BME280;47021;51.340;12.432;2023-12-04T05:32:41;100379.97;;;2.63;57.40
61136;BME280;47021;51.340;12.432;2023-12-04T05:35:21;100377.41;;;2.63;57.93
61136;BME280;47021;51.340;12.432;2023-12-04T05:37:54;100384.00;;;2.69;57.65
61136;BME280;47021;51.340;12.432;2023-12-04T05:40:31;100389.34;;;2.64;58.09
61136;BME280;47021;51.340;12.432;2023-12-04T05:42:56;100380.06;;;2.98;56.47
61136;BME280;47021;51.340;12.432;2023-12-04T05:45:21;100381.44;;;3.05;56.33
61136;BME280;47021;51.340;12.432;2023-12-04T05:47:47;100377.94;;;3.06;56.71
61136;BME280;47021;51.340;12.432;2023-12-04T05:50:13;100380.88;;;2.98;57.24
61136;BME280;47021;51.340;12.432;2023-12-04T05:52:52;100376.63;;;2.97;56.92
61136;BME280;47021;51.340;12.432;2023-12-04T05:55:18;100374.91;;;2.98;57.21
61136;BME280;47021;51.340;12.432;2023-12-04T05:57:45;100366.00;;;3.03;56.86
61136;BME280;47021;51.340;12.432;2023-12-04T06:00:11;100363.97;;;3.10;56.42
61136;BME280;47021;51.340;12.432;2023-12-04T06:02:36;100364.13;;;3.07;56.43
61136;BME280;47021;51.340;12.432;2023-12-04T06:05:01;100360.19;;;3.17;56.47
61136;BME280;47021;51.340;12.432;2023-12-04T06:07:34;100356.38;;;3.24;56.33
61136;BME280;47021;51.340;12.432;2023-12-04T06:12:43;100347.50;;;2.95;56.92
61136;BME280;47021;51.340;12.432;2023-12-04T06:15:10;100347.06;;;3.04;56.35
61136;BME280;47021;51.340;12.432;2023-12-04T06:17:37;100344.94;;;3.12;56.49
61136;BME280;47021;51.340;12.432;2023-12-04T06:20:07;100340.97;;;3.05;56.57
61136;BME280;47021;51.340;12.432;2023-12-04T06:22:39;100328.19;;;3.21;55.67
61136;BME280;47021;51.340;12.432;2023-12-04T06:25:04;100333.84;;;2.93;56.11
61136;BME280;47021;51.340;12.432;2023-12-04T06:27:35;100329.91;;;3.03;56.32
61136;BME280;47021;51.340;12.432;2023-12-04T06:30:01;100331.03;;;2.80;56.15
61136;BME280;47021;51.340;12.432;2023-12-04T06:32:29;100328.06;;;3.05;55.79
61136;BME280;47021;51.340;12.432;2023-12-04T06:34:55;100325.94;;;2.96;55.34
61136;BME280;47021;51.340;12.432;2023-12-04T06:37:20;100335.41;;;2.78;56.42
61136;BME280;47021;51.340;12.432;2023-12-04T06:39:52;100324.53;;;2.91;55.84
61136;BME280;47021;51.340;12.432;2023-12-04T06:42:24;100328.94;;;2.34;57.47
61136;BME280;47021;51.340;12.432;2023-12-04T06:44:52;100325.81;;;2.28;57.35
61136;BME280;47021;51.340;12.432;2023-12-04T06:47:17;100329.22;;;2.28;57.25
61136;BME280;47021;51.340;12.432;2023-12-04T06:49:43;100326.22;;;2.37;57.46
61136;BME280;47021;51.340;12.432;2023-12-04T06:52:08;100318.69;;;2.33;56.81
61136;BME280;47021;51.340;12.432;2023-12-04T06:54:34;100310.50;;;2.25;57.38
61136;BME280;47021;51.340;12.432;2023-12-04T06:56:59;100312.78;;;2.31;57.65
61136;BME280;47021;51.340;12.432;2023-12-04T06:59:24;100313.25;;;2.20;57.83
61136;BME280;47021;51.340;12.432;2023-12-04T07:01:59;100313.75;;;2.28;57.33
61136;BME280;47021;51.340;12.432;2023-12-04T07:04:25;100301.50;;;2.52;57.04
61136;BME280;47021;51.340;12.432;2023-12-04T07:06:50;100306.97;;;2.63;56.22
61136;BME280;47021;51.340;12.432;2023-12-04T07:09:15;100303.53;;;2.62;55.90
61136;BME280;47021;51.340;12.432;2023-12-04T07:11:42;100297.78;;;2.39;56.11
61136;BME280;47021;51.340;12.432;2023-12-04T07:14:07;100303.34;;;2.48;56.68
61136;BME280;47021;51.340;12.432;2023-12-04T07:16:42;100298.56;;;2.41;56.72
61136;BME280;47021;51.340;12.432;2023-12-04T07:19:14;100306.34;;;2.22;56.68
61136;BME280;47021;51.340;12.432;2023-12-04T07:21:47;100298.19;;;2.12;57.23
61136;BME280;47021;51.340;12.432;2023-12-04T07:24:15;100295.09;;;2.23;56.77
61136;BME280;47021;51.340;12.432;2023-12-04T07:26:41;100299.03;;;2.13;57.01
61136;BME280;47021;51.340;12.432;2023-12-04T07:29:07;100297.88;;;2.00;56.93
61136;BME280;47021;51.340;12.432;2023-12-04T07:31:44;100305.91;;;2.31;56.35
61136;BME280;47021;51.340;12.432;2023-12-04T07:34:11;100303.03;;;2.73;55.08
61136;BME280;47021;51.340;12.432;2023-12-04T07:36:54;100309.19;;;2.70;55.84
61136;BME280;47021;51.340;12.432;2023-12-04T07:39:32;100311.84;;;2.50;55.21
61136;BME280;47021;51.340;12.432;2023-12-04T07:42:04;100312.84;;;3.01;54.71
61136;BME280;47021;51.340;12.432;2023-12-04T07:44:36;100308.59;;;3.17;53.55
61136;BME280;47021;51.340;12.432;2023-12-04T07:47:07;100314.81;;;2.96;53.61
61136;BME280;47021;51.340;12.432;2023-12-04T07:49:33;100313.97;;;2.95;53.98
61136;BME280;47021;51.340;12.432;2023-12-04T07:52:04;100313.28;;;2.92;55.03
61136;BME280;47021;51.340;12.432;2023-12-04T07:54:29;100314.97;;;2.93;55.05
61136;BME280;47021;51.340;12.432;2023-12-04T07:59:52;100310.44;;;3.65;53.16
61136;BME280;47021;51.340;12.432;2023-12-04T08:02:23;100314.44;;;3.70;52.49
61136;BME280;47021;51.340;12.432;2023-12-04T08:05:02;100306.84;;;4.00;52.38
61136;BME280;47021;51.340;12.432;2023-12-04T08:07:27;100306.66;;;3.87;52.86
61136;BME280;47021;51.340;12.432;2023-12-04T08:09:53;100299.75;;;4.03;52.66
61136;BME280;47021;51.340;12.432;2023-12-04T08:12:18;100299.94;;;4.16;51.56
61136;BME280;47021;51.340;12.432;2023-12-04T08:14:44;100293.09;;;4.15;51.48
61136;BME280;47021;51.340;12.432;2023-12-04T08:17:09;100300.34;;;4.24;51.45
61136;BME280;47021;51.340;12.432;2023-12-04T08:19:35;100292.94;;;4.18;50.96
61136;BME280;47021;51.340;12.432;2023-12-04T08:22:00;100299.03;;;4.17;51.38
61136;BME280;47021;51.340;12.432;2023-12-04T08:24:26;100295.38;;;4.05;52.41
61136;BME280;47021;51.340;12.432;2023-12-04T08:26:52;100291.00;;;4.06;52.39
61136;BME280;47021;51.340;12.432;2023-12-04T08:29:17;100292.53;;;4.25;51.46
61136;BME280;47021;51.340;12.432;2023-12-04T08:31:42;100290.59;;;4.29;50.92
61136;BME280;47021;51.340;12.432;2023-12-04T08:34:08;100290.50;;;4.15;51.65
61136;BME280;47021;51.340;12.432;2023-12-04T08:36:33;100293.75;;;4.50;50.83
61136;BME280;47021;51.340;12.432;2023-12-04T08:39:00;100286.84;;;4.35;51.45
61136;BME280;47021;51.340;12.432;2023-12-04T08:41:27;100286.69;;;4.38;52.86
61136;BME280;47021;51.340;12.432;2023-12-04T08:43:52;100280.63;;;4.68;51.07
61136;BME280;47021;51.340;12.432;2023-12-04T08:46:23;100288.06;;;4.59;52.27
61136;BME280;47021;51.340;12.432;2023-12-04T08:48:49;100280.94;;;4.78;50.84
61136;BME280;47021;51.340;12.432;2023-12-04T08:51:27;100289.84;;;4.43;50.82
61136;BME280;47021;51.340;12.432;2023-12-04T08:53:53;100280.50;;;4.56;50.87
61136;BME280;47021;51.340;12.432;2023-12-04T08:56:18;100279.84;;;4.82;51.00
61136;BME280;47021;51.340;12.432;2023-12-04T08:58:44;100284.41;;;4.63;50.81
61136;BME280;47021;51.340;12.432;2023-12-04T09:01:23;100281.69;;;4.80;50.37
61136;BME280;47021;51.340;12.432;2023-12-04T09:03:48;100278.25;;;4.95;51.43
61136;BME280;47021;51.340;12.432;2023-12-04T09:06:13;100278.56;;;5.19;50.84
61136;BME280;47021;51.340;12.432;2023-12-04T09:08:46;100278.88;;;5.28;51.16
61136;BME280;47021;51.340;12.432;2023-12-04T09:14:18;100263.94;;;5.04;49.52
61136;BME280;47021;51.340;12.432;2023-12-04T09:20:03;100264.31;;;5.12;49.67
61136;BME280;47021;51.340;12.432;2023-12-04T09:22:41;100263.22;;;5.30;49.90
61136;BME280;47021;51.340;12.432;2023-12-04T09:25:12;100266.22;;;5.52;48.66
61136;BME280;47021;51.340;12.432;2023-12-04T09:27:39;100264.94;;;5.59;49.98
61136;BME280;47021;51.340;12.432;2023-12-04T09:30:12;100265.84;;;5.58;49.15
61136;BME280;47021;51.340;12.432;2023-12-04T09:32:44;100267.69;;;5.98;48.98
61136;BME280;47021;51.340;12.432;2023-12-04T09:35:10;100262.28;;;5.89;47.44
61136;BME280;47021;51.340;12.432;2023-12-04T09:37:38;100252.72;;;5.89;47.81
61136;BME280;47021;51.340;12.432;2023-12-04T09:40:03;100249.34;;;6.15;47.40
61136;BME280;47021;51.340;12.432;2023-12-04T09:42:30;100254.31;;;5.63;47.85
61136;BME280;47021;51.340;12.432;2023-12-04T09:44:56;100240.25;;;5.96;47.90
61136;BME280;47021;51.340;12.432;2023-12-04T09:47:23;100241.91;;;6.23;48.14
61136;BME280;47021;51.340;12.432;2023-12-04T09:49:52;100236.53;;;6.26;47.23
61136;BME280;47021;51.340;12.432;2023-12-04T09:52:34;100243.84;;;5.93;47.25
61136;BME280;47021;51.340;12.432;2023-12-04T09:55:11;100239.69;;;6.31;47.28
61136;BME280;47021;51.340;12.432;2023-12-04T09:57:37;100232.16;;;6.80;46.73
61136;BME280;47021;51.340;12.432;2023-12-04T10:00:04;100230.09;;;6.98;45.72
61136;BME280;47021;51.340;12.432;2023-12-04T10:02:29;100224.50;;;7.29;45.59
61136;BME280;47021;51.340;12.432;2023-12-04T10:05:07;100219.19;;;6.93;45.52
61136;BME280;47021;51.340;12.432;2023-12-04T10:07:38;100212.44;;;6.90;46.31
61136;BME280;47021;51.340;12.432;2023-12-04T10:10:06;100217.03;;;6.60;46.40
61136;BME280;47021;51.340;12.432;2023-12-04T10:12:38;100211.28;;;6.94;46.79
61136;BME280;47021;51.340;12.432;2023-12-04T10:17:32;100201.66;;;7.34;44.65
61136;BME280;47021;51.340;12.432;2023-12-04T10:20:07;100193.50;;;7.64;44.95
61136;BME280;47021;51.340;12.432;2023-12-04T10:25:22;100190.97;;;7.01;45.60
61136;BME280;47021;51.340;12.432;2023-12-04T10:30:32;100174.97;;;7.81;44.68
61136;BME280;47021;51.340;12.432;2023-12-04T10:32:58;100165.81;;;7.39;46.23
61136;BME280;47021;51.340;12.432;2023-12-04T10:37:59;100156.47;;;7.73;45.31
61136;BME280;47021;51.340;12.432;2023-12-04T10:40:30;100148.88;;;7.46;44.25
61136;BME280;47021;51.340;12.432;2023-12-04T10:45:33;100137.75;;;7.32;46.61
61136;BME280;47021;51.340;12.432;2023-12-04T10:48:09;100127.75;;;7.51;44.78
61136;BME280;47021;51.340;12.432;2023-12-04T10:50:35;100117.25;;;7.52;44.78
61136;BME280;47021;51.340;12.432;2023-12-04T10:53:03;100116.16;;;7.31;45.85
61136;BME280;47021;51.340;12.432;2023-12-04T10:55:31;100114.19;;;7.71;45.17
61136;BME280;47021;51.340;12.432;2023-12-04T10:57:58;100114.31;;;7.57;46.90
61136;BME280;47021;51.340;12.432;2023-12-04T11:00:24;100103.66;;;7.72;47.11
61136;BME280;47021;51.340;12.432;2023-12-04T11:02:56;100102.63;;;7.75;44.56
61136;BME280;47021;51.340;12.432;2023-12-04T11:05:23;100094.06;;;7.86;43.75
61136;BME280;47021;51.340;12.432;2023-12-04T11:08:07;100099.25;;;7.26;45.53
61136;BME280;47021;51.340;12.432;2023-12-04T11:10:50;100103.13;;;6.82;45.94
61136;BME280;47021;51.340;12.432;2023-12-04T11:13:21;100089.78;;;7.37;45.72
61136;BME280;47021;51.340;12.432;2023-12-04T11:15:58;100093.53;;;7.57;45.23
61136;BME280;47021;51.340;12.432;2023-12-04T11:18:25;100091.91;;;7.56;44.61
61136;BME280;47021;51.340;12.432;2023-12-04T11:20:56;100091.78;;;7.57;44.79
61136;BME280;47021;51.340;12.432;2023-12-04T11:23:22;100085.38;;;7.74;44.09
61136;BME280;47021;51.340;12.432;2023-12-04T11:31:15;100078.13;;;7.90;43.79
61136;BME280;47021;51.340;12.432;2023-12-04T11:33:40;100075.16;;;7.83;43.83
61136;BME280;47021;51.340;12.432;2023-12-04T11:36:09;100070.38;;;8.01;43.62
61136;BME280;47021;51.340;12.432;2023-12-04T11:38:34;100068.03;;;7.74;46.14
61136;BME280;47021;51.340;12.432;2023-12-04T11:41:01;100064.75;;;7.83;44.43
61136;BME280;47021;51.340;12.432;2023-12-04T11:43:36;100061.72;;;7.90;44.24
61136;BME280;47021;51.340;12.432;2023-12-04T11:46:08;100061.97;;;7.98;44.28
61136;BME280;47021;51.340;12.432;2023-12-04T11:48:36;100060.78;;;7.91;45.06
61136;BME280;47021;51.340;12.432;2023-12-04T11:51:01;100057.06;;;8.17;44.93
61136;BME280;47021;51.340;12.432;2023-12-04T11:53:27;100054.59;;;8.15;46.64
61136;BME280;47021;51.340;12.432;2023-12-04T11:55:55;100053.53;;;8.18;43.93
61136;BME280;47021;51.340;12.432;2023-12-04T11:58:21;100049.25;;;8.40;46.10
61136;BME280;47021;51.340;12.432;2023-12-04T12:00:48;100048.50;;;8.27;48.25
61136;BME280;47021;51.340;12.432;2023-12-04T12:03:15;100050.22;;;7.81;47.67
61136;BME280;47021;51.340;12.432;2023-12-04T12:05:40;100045.84;;;7.58;46.94
61136;BME280;47021;51.340;12.432;2023-12-04T12:08:18;100038.31;;;7.66;45.28
61136;BME280;47021;51.340;12.432;2023-12-04T12:10:43;100039.66;;;7.48;45.71
61136;BME280;47021;51.340;12.432;2023-12-04T12:13:09;100044.72;;;7.73;48.76
61136;BME280;47021;51.340;12.432;2023-12-04T12:15:35;100038.03;;;7.81;48.14
61136;BME280;47021;51.340;12.432;2023-12-04T12:18:00;100035.22;;;7.37;46.13
61136;BME280;47021;51.340;12.432;2023-12-04T12:20:44;100032.28;;;7.89;46.10
61136;BME280;47021;51.340;12.432;2023-12-04T12:23:09;100025.66;;;7.61;45.41
61136;BME280;47021;51.340;12.432;2023-12-04T12:25:36;100026.44;;;8.09;46.20
61136;BME280;47021;51.340;12.432;2023-12-04T12:28:10;100019.38;;;8.11;45.17
61136;BME280;47021;51.340;12.432;2023-12-04T12:30:35;100016.47;;;8.27;46.58
61136;BME280;47021;51.340;12.432;2023-12-04T12:33:00;100003.34;;;8.39;46.47
61136;BME280;47021;51.340;12.432;2023-12-04T12:35:27;100001.91;;;8.24;45.04
61136;BME280;47021;51.340;12.432;2023-12-04T12:37:52;99994.84;;;7.92;45.72
61136;BME280;47021;51.340;12.432;2023-12-04T12:40:22;99988.16;;;8.11;45.06
61136;BME280;47021;51.340;12.432;2023-12-04T12:42:48;99983.75;;;8.01;47.44
61136;BME280;47021;51.340;12.432;2023-12-04T12:45:14;99983.31;;;7.72;46.47
61136;BME280;47021;51.340;12.432;2023-12-04T12:47:43;99980.19;;;7.91;46.11
61136;BME280;47021;51.340;12.432;2023-12-04T12:50:11;99974.50;;;7.86;45.95
61136;BME280;47021;51.340;12.432;2023-12-04T12:52:37;99975.41;;;7.73;46.56
61136;BME280;47021;51.340;12.432;2023-12-04T12:55:05;99976.66;;;7.68;46.39
61136;BME280;47021;51.340;12.432;2023-12-04T12:57:30;99970.63;;;8.02;46.02
61136;BME280;47021;51.340;12.432;2023-12-04T12:59:56;99962.09;;;7.89;46.26
61136;BME280;47021;51.340;12.432;2023-12-04T13:02:22;99957.09;;;7.75;47.07
61136;BME280;47021;51.340;12.432;2023-12-04T13:04:47;99960.56;;;7.98;48.04
61136;BME280;47021;51.340;12.432;2023-12-04T13:07:14;99953.53;;;7.65;49.11
61136;BME280;47021;51.340;12.432;2023-12-04T13:09:48;99953.03;;;7.60;46.56
61136;BME280;47021;51.340;12.432;2023-12-04T13:12:14;99948.50;;;7.51;46.95
61136;BME280;47021;51.340;12.432;2023-12-04T13:14:45;99947.28;;;7.67;47.62
61136;BME280;47021;51.340;12.432;2023-12-04T13:17:17;99946.25;;;7.46;49.41
61136;BME280;47021;51.340;12.432;2023-12-04T13:19:42;99938.72;;;7.54;48.62
61136;BME280;47021;51.340;12.432;2023-12-04T13:22:07;99940.94;;;7.48;51.08
61136;BME280;47021;51.340;12.432;2023-12-04T13:24:33;99936.50;;;7.61;49.98
61136;BME280;47021;51.340;12.432;2023-12-04T13:26:59;99929.25;;;7.42;53.05
61136;BME280;47021;51.340;12.432;2023-12-04T13:29:24;99929.25;;;7.42;53.83
61136;BME280;47021;51.340;12.432;2023-12-04T13:31:52;99918.22;;;7.39;52.77
61136;BME280;47021;51.340;12.432;2023-12-04T13:34:17;99917.94;;;7.54;49.69
61136;BME280;47021;51.340;12.432;2023-12-04T13:36:43;99906.13;;;7.50;49.55
61136;BME280;47021;51.340;12.432;2023-12-04T13:39:13;99899.53;;;7.57;48.32
61136;BME280;47021;51.340;12.432;2023-12-04T13:41:40;99892.31;;;7.61;47.54
61136;BME280;47021;51.340;12.432;2023-12-04T13:44:07;99887.03;;;7.62;49.14
61136;BME280;47021;51.340;12.432;2023-12-04T13:46:33;99884.59;;;7.37;50.76
61136;BME280;47021;51.340;12.432;2023-12-04T13:49:07;99886.50;;;7.46;48.80
61136;BME280;47021;51.340;12.432;2023-12-04T13:51:40;99879.44;;;7.48;48.48
61136;BME280;47021;51.340;12.432;2023-12-04T13:54:06;99870.56;;;7.40;49.77
61136;BME280;47021;51.340;12.432;2023-12-04T13:56:33;99867.19;;;7.27;48.78
61136;BME280;47021;51.340;12.432;2023-12-04T13:58:58;99862.06;;;7.49;48.85
61136;BME280;47021;51.340;12.432;2023-12-04T14:01:26;99858.34;;;7.29;48.90
61136;BME280;47021;51.340;12.432;2023-12-04T14:03:52;99859.63;;;7.24;48.98
61136;BME280;47021;51.340;12.432;2023-12-04T14:09:01;99852.56;;;7.26;49.61
61136;BME280;47021;51.340;12.432;2023-12-04T14:11:28;99845.34;;;6.94;49.18
61136;BME280;47021;51.340;12.432;2023-12-04T14:13:56;99837.63;;;7.05;49.21
61136;BME280;47021;51.340;12.432;2023-12-04T14:16:22;99841.69;;;7.21;48.92
61136;BME280;47021;51.340;12.432;2023-12-04T14:18:47;99834.97;;;7.29;48.98
61136;BME280;47021;51.340;12.432;2023-12-04T14:21:13;99833.34;;;7.28;49.53
61136;BME280;47021;51.340;12.432;2023-12-04T14:23:38;99837.38;;;7.08;50.20
61136;BME280;47021;51.340;12.432;2023-12-04T14:26:04;99825.00;;;6.77;49.47
61136;BME280;47021;51.340;12.432;2023-12-04T14:28:30;99826.16;;;5.63;51.92
61136;BME280;47021;51.340;12.432;2023-12-04T14:30:56;99824.06;;;5.81;51.96
61136;BME280;47021;51.340;12.432;2023-12-04T14:33:21;99819.59;;;6.20;51.87
61136;BME280;47021;51.340;12.432;2023-12-04T14:35:53;99814.81;;;6.14;51.75
61136;BME280;47021;51.340;12.432;2023-12-04T14:38:20;99819.63;;;6.68;50.97
61136;BME280;47021;51.340;12.432;2023-12-04T14:40:45;99814.25;;;6.58;50.13
61136;BME280;47021;51.340;12.432;2023-12-04T14:43:18;99809.16;;;6.46;50.29
61136;BME280;47021;51.340;12.432;2023-12-04T14:45:43;99812.66;;;6.45;50.91
61136;BME280;47021;51.340;12.432;2023-12-04T14:48:20;99813.00;;;6.64;51.23
61136;BME280;47021;51.340;12.432;2023-12-04T14:50:46;99815.16;;;6.70;49.61
61136;BME280;47021;51.340;12.432;2023-12-04T14:53:18;99810.56;;;6.50;50.00
61136;BME280;47021;51.340;12.432;2023-12-04T14:55:43;99809.41;;;6.54;52.34
61136;BME280;47021;51.340;12.432;2023-12-04T14:58:16;99801.56;;;6.43;50.56
61136;BME280;47021;51.340;12.432;2023-12-04T15:00:41;99801.91;;;6.38;50.02
61136;BME280;47021;51.340;12.432;2023-12-04T15:03:12;99799.03;;;6.30;50.94
61136;BME280;47021;51.340;12.432;2023-12-04T15:05:46;99798.50;;;6.61;50.57
61136;BME280;47021;51.340;12.432;2023-12-04T15:08:17;99800.41;;;6.47;50.86
61136;BME280;47021;51.340;12.432;2023-12-04T15:10:54;99799.84;;;6.67;49.63
61136;BME280;47021;51.340;12.432;2023-12-04T15:13:19;99793.41;;;6.00;51.00
61136;BME280;47021;51.340;12.432;2023-12-04T15:15:44;99789.66;;;6.64;50.41
61136;BME280;47021;51.340;12.432;2023-12-04T15:18:15;99788.84;;;6.63;50.67
61136;BME280;47021;51.340;12.432;2023-12-04T15:20:40;99785.19;;;6.42;50.86
61136;BME280;47021;51.340;12.432;2023-12-04T15:23:05;99784.44;;;6.53;51.00
61136;BME280;47021;51.340;12.432;2023-12-04T15:25:31;99782.84;;;6.26;51.05
61136;BME280;47021;51.340;12.432;2023-12-04T15:27:57;99778.63;;;6.25;51.10
61136;BME280;47021;51.340;12.432;2023-12-04T15:30:23;99789.09;;;6.24;51.77
61136;BME280;47021;51.340;12.432;2023-12-04T15:32:56;99776.63;;;5.93;51.69
61136;BME280;47021;51.340;12.432;2023-12-04T15:35:22;99769.06;;;6.26;51.30
61136;BME280;47021;51.340;12.432;2023-12-04T15:37:47;99764.38;;;6.31;50.92
61136;BME280;47021;51.340;12.432;2023-12-04T15:40:25;99762.16;;;6.37;51.16
61136;BME280;47021;51.340;12.432;2023-12-04T15:42:50;99756.50;;;5.84;51.55
61136;BME280;47021;51.340;12.432;2023-12-04T15:45:17;99761.09;;;5.42;52.54
61136;BME280;47021;51.340;12.432;2023-12-04T15:47:42;99752.34;;;5.94;52.26
61136;BME280;47021;51.340;12.432;2023-12-04T15:50:07;99756.09;;;6.02;51.87
61136;BME280;47021;51.340;12.432;2023-12-04T15:52:33;99752.50;;;5.54;52.07
61136;BME280;47021;51.340;12.432;2023-12-04T15:55:05;99744.13;;;5.38;53.62
61136;BME280;47021;51.340;12.432;2023-12-04T15:57:36;99741.63;;;5.12;53.62
61136;BME280;47021;51.340;12.432;2023-12-04T16:02:45;99729.84;;;5.20;54.36
61136;BME280;47021;51.340;12.432;2023-12-04T16:05:10;99726.94;;;5.37;54.28
61136;BME280;47021;51.340;12.432;2023-12-04T16:07:36;99725.53;;;5.69;53.36
61136;BME280;47021;51.340;12.432;2023-12-04T16:10:08;99723.59;;;5.60;53.28
61136;BME280;47021;51.340;12.432;2023-12-04T16:12:36;99725.81;;;5.29;54.10
61136;BME280;47021;51.340;12.432;2023-12-04T16:15:05;99732.31;;;5.22;55.29
61136;BME280;47021;51.340;12.432;2023-12-04T16:17:30;99722.91;;;5.33;54.17
61136;BME280;47021;51.340;12.432;2023-12-04T16:19:56;99712.53;;;5.58;54.23